createdAt,value
2023-02-19T00:01:01.520Z,10.60
2023-02-19T00:03:28.094Z,10.66
2023-02-19T00:05:54.596Z,10.67
2023-02-19T00:08:21.079Z,10.67
2023-02-19T00:10:47.566Z,10.66
2023-02-19T00:13:14.880Z,10.67
2023-02-19T00:15:41.363Z,10.74
2023-02-19T00:18:07.834Z,10.79
2023-02-19T00:20:34.315Z,10.83
2023-02-19T00:23:00.843Z,10.84
2023-02-19T00:25:27.367Z,10.80
2023-02-19T00:27:54.072Z,10.77
2023-02-19T00:30:20.691Z,10.74
2023-02-19T00:32:51.347Z,10.70
2023-02-19T00:35:17.843Z,10.77
2023-02-19T00:37:44.306Z,10.73
2023-02-19T00:40:11.023Z,10.70
2023-02-19T00:42:37.478Z,10.71
2023-02-19T00:45:04.502Z,10.64
2023-02-19T00:47:31.000Z,10.67
2023-02-19T00:49:57.413Z,10.66
2023-02-19T00:52:23.847Z,10.61
2023-02-19T00:54:50.296Z,10.70
2023-02-19T01:01:40.710Z,10.79
2023-02-19T01:04:07.694Z,10.83
2023-02-19T01:06:35.326Z,10.85
2023-02-19T01:09:02.816Z,10.87
2023-02-19T01:11:29.334Z,10.87
2023-02-19T01:14:00.833Z,10.88
2023-02-19T01:16:28.261Z,10.92
2023-02-19T01:18:54.823Z,10.91
2023-02-19T01:21:23.804Z,10.90
2023-02-19T01:23:51.543Z,10.91
2023-02-19T01:26:20.880Z,10.85
2023-02-19T01:28:48.441Z,10.91
2023-02-19T01:31:21.609Z,10.92
2023-02-19T01:33:51.220Z,10.90
2023-02-19T01:36:18.186Z,10.94
2023-02-19T01:38:44.947Z,10.88
2023-02-19T01:41:14.623Z,10.91
2023-02-19T01:44:01.513Z,10.88
2023-02-19T01:46:32.990Z,10.94
2023-02-19T01:49:06.461Z,10.91
2023-02-19T01:51:35.562Z,10.92
2023-02-19T01:54:05.469Z,10.92
2023-02-19T01:56:36.420Z,10.85
2023-02-19T01:59:03.058Z,10.88
2023-02-19T02:01:29.701Z,10.91
2023-02-19T02:03:56.313Z,10.95
2023-02-19T02:06:26.003Z,10.98
2023-02-19T02:09:14.415Z,10.92
2023-02-19T02:11:47.269Z,10.90
2023-02-19T02:14:14.559Z,10.91
2023-02-19T02:17:07.374Z,10.92
2023-02-19T02:20:03.659Z,10.92
2023-02-19T02:22:36.416Z,10.85
2023-02-19T02:25:20.134Z,10.84
2023-02-19T02:28:11.758Z,10.83
2023-02-19T02:30:43.588Z,10.84
2023-02-19T02:33:28.141Z,10.80
2023-02-19T02:35:59.328Z,10.81
2023-02-19T02:38:29.881Z,10.79
2023-02-19T02:40:57.149Z,10.87
2023-02-19T02:43:24.204Z,10.84
2023-02-19T02:45:50.761Z,10.83
2023-02-19T02:48:24.725Z,10.83
2023-02-19T02:51:00.179Z,10.77
2023-02-19T02:53:59.069Z,10.80
2023-02-19T02:56:26.361Z,10.81
2023-02-19T02:58:54.831Z,10.79
2023-02-19T03:01:47.781Z,10.80
2023-02-19T03:04:59.590Z,10.77
2023-02-19T03:07:31.103Z,10.81
2023-02-19T03:10:00.602Z,10.84
2023-02-19T03:12:49.653Z,10.79
2023-02-19T03:15:35.493Z,10.80
2023-02-19T03:18:24.092Z,10.83
2023-02-19T03:20:54.934Z,10.81
2023-02-19T03:23:43.314Z,10.84
2023-02-19T03:26:12.144Z,10.77
2023-02-19T03:29:01.268Z,10.87
2023-02-19T03:31:30.468Z,10.84
2023-02-19T03:34:00.687Z,10.84
2023-02-19T03:36:33.704Z,10.80
2023-02-19T03:39:04.581Z,10.81
2023-02-19T03:41:43.491Z,10.84
2023-02-19T03:44:13.927Z,10.80
2023-02-19T03:47:15.719Z,10.79
2023-02-19T03:50:11.743Z,10.80
2023-02-19T03:52:47.178Z,10.77
2023-02-19T03:55:32.037Z,10.83
2023-02-19T03:58:20.380Z,10.84
2023-02-19T04:01:07.336Z,10.83
2023-02-19T04:03:52.206Z,10.73
2023-02-19T04:06:26.001Z,10.70
2023-02-19T04:08:56.298Z,10.67
2023-02-19T04:11:24.598Z,10.66
2023-02-19T04:13:56.728Z,10.64
2023-02-19T04:16:28.638Z,10.67
2023-02-19T04:19:02.524Z,10.67
2023-02-19T04:21:31.969Z,10.63
2023-02-19T04:24:03.986Z,10.67
2023-02-19T04:26:32.163Z,10.61
2023-02-19T04:28:58.629Z,10.61
2023-02-19T04:31:27.284Z,10.53
2023-02-19T04:33:53.803Z,10.49
2023-02-19T04:36:20.298Z,10.48
2023-02-19T04:38:46.816Z,10.49
2023-02-19T04:41:13.435Z,10.43
2023-02-19T04:43:39.989Z,10.38
2023-02-19T04:46:06.525Z,10.30
2023-02-19T04:48:33.016Z,10.28
2023-02-19T04:50:59.541Z,10.25
2023-02-19T04:53:26.017Z,10.22
2023-02-19T04:55:53.469Z,10.23
2023-02-19T04:58:20.674Z,10.26
2023-02-19T05:00:51.036Z,10.25
2023-02-19T05:03:17.471Z,10.21
2023-02-19T05:05:44.022Z,10.25
2023-02-19T05:08:10.486Z,10.18
2023-02-19T05:10:36.912Z,10.13
2023-02-19T05:13:03.392Z,10.15
2023-02-19T05:15:29.853Z,10.19
2023-02-19T05:17:56.300Z,10.18
2023-02-19T05:20:23.091Z,10.16
2023-02-19T05:22:49.584Z,10.11
2023-02-19T05:25:16.224Z,10.09
2023-02-19T05:27:42.715Z,10.08
2023-02-19T05:30:10.176Z,10.09
2023-02-19T05:32:36.970Z,10.08
2023-02-19T05:35:03.721Z,10.06
2023-02-19T05:37:30.206Z,10.08
2023-02-19T05:39:56.761Z,10.03
2023-02-19T05:42:23.319Z,10.05
2023-02-19T05:44:49.786Z,10.09
2023-02-19T05:47:16.330Z,10.11
2023-02-19T05:49:42.950Z,10.08
2023-02-19T05:52:09.503Z,10.09
2023-02-19T05:54:36.000Z,10.08
2023-02-19T05:57:02.461Z,10.06
2023-02-19T05:59:29.155Z,10.02
2023-02-19T06:01:55.838Z,10.02
2023-02-19T06:04:22.372Z,9.99
2023-02-19T06:06:49.152Z,9.95
2023-02-19T06:09:15.956Z,9.99
2023-02-19T06:11:43.648Z,9.97
2023-02-19T06:14:12.734Z,9.97
2023-02-19T06:16:39.430Z,9.94
2023-02-19T06:19:06.048Z,9.92
2023-02-19T06:21:32.549Z,9.94
2023-02-19T06:23:59.227Z,9.97
2023-02-19T06:26:26.039Z,9.94
2023-02-19T06:28:54.110Z,9.91
2023-02-19T06:31:22.258Z,9.94
2023-02-19T06:33:50.736Z,9.97
2023-02-19T06:36:19.408Z,9.90
2023-02-19T06:38:46.406Z,9.88
2023-02-19T06:41:14.106Z,9.95
2023-02-19T06:43:41.161Z,9.92
2023-02-19T06:46:08.028Z,9.91
2023-02-19T06:48:35.382Z,9.92
2023-02-19T06:51:01.901Z,9.99
2023-02-19T06:53:28.449Z,9.94
2023-02-19T06:56:03.285Z,9.97
2023-02-19T06:58:30.151Z,9.90
2023-02-19T07:00:56.737Z,9.87
2023-02-19T07:03:23.756Z,9.85
2023-02-19T07:05:53.274Z,9.82
2023-02-19T07:08:20.006Z,9.82
2023-02-19T07:10:53.773Z,9.81
2023-02-19T07:13:24.012Z,9.81
2023-02-19T07:15:52.196Z,9.85
2023-02-19T07:18:19.234Z,9.82
2023-02-19T07:20:45.964Z,9.84
2023-02-19T07:23:12.592Z,9.87
2023-02-19T07:25:39.769Z,9.87
2023-02-19T07:28:07.053Z,9.82
2023-02-19T07:33:44.074Z,9.81
2023-02-19T07:38:58.675Z,9.88
2023-02-19T07:41:31.494Z,9.91
2023-02-19T07:43:58.669Z,9.91
2023-02-19T07:46:25.813Z,9.87
2023-02-19T07:51:33.306Z,9.81
2023-02-19T07:54:00.536Z,9.87
2023-02-19T07:56:28.885Z,9.85
2023-02-19T07:58:55.381Z,9.84
2023-02-19T08:01:45.620Z,9.85
2023-02-19T08:04:14.086Z,9.78
2023-02-19T08:06:43.294Z,9.74
2023-02-19T08:09:09.989Z,9.75
2023-02-19T08:11:55.223Z,9.73
2023-02-19T08:14:26.658Z,9.75
2023-02-19T08:16:54.080Z,9.78
2023-02-19T08:19:21.537Z,9.78
2023-02-19T08:21:50.637Z,9.77
2023-02-19T08:24:17.240Z,9.78
2023-02-19T08:26:43.729Z,9.81
2023-02-19T08:29:10.532Z,9.84
2023-02-19T08:31:37.710Z,9.92
2023-02-19T08:34:04.368Z,9.90
2023-02-19T08:36:31.206Z,9.95
2023-02-19T08:38:57.695Z,10.02
2023-02-19T08:41:24.233Z,10.01
2023-02-19T08:43:50.895Z,10.03
2023-02-19T08:46:17.366Z,10.09
2023-02-19T08:48:43.857Z,10.12
2023-02-19T08:51:12.261Z,10.09
2023-02-19T08:53:40.569Z,10.15
2023-02-19T08:56:08.984Z,10.16
2023-02-19T08:58:37.495Z,10.18
2023-02-19T09:01:09.052Z,10.19
2023-02-19T09:03:35.862Z,10.21
2023-02-19T09:06:02.316Z,10.28
2023-02-19T09:08:28.949Z,10.21
2023-02-19T09:11:03.630Z,10.23
2023-02-19T09:13:30.461Z,10.29
2023-02-19T09:15:57.397Z,10.34
2023-02-19T09:18:25.956Z,10.38
2023-02-19T09:20:53.029Z,10.38
2023-02-19T09:23:19.815Z,10.33
2023-02-19T09:25:46.578Z,10.30
2023-02-19T09:28:13.324Z,10.43
2023-02-19T09:30:39.970Z,10.45
2023-02-19T09:33:07.068Z,10.45
2023-02-19T09:35:36.838Z,10.42
2023-02-19T09:38:03.442Z,10.40
2023-02-19T09:40:30.498Z,10.45
2023-02-19T09:42:57.802Z,10.49
2023-02-19T09:45:26.789Z,10.42
2023-02-19T09:47:56.435Z,10.43
2023-02-19T09:50:30.312Z,10.36
2023-02-19T09:53:01.429Z,10.34
2023-02-19T09:55:36.321Z,10.30
2023-02-19T09:58:27.965Z,10.29
2023-02-19T10:00:56.609Z,10.26
2023-02-19T10:03:33.686Z,10.29
2023-02-19T10:06:05.063Z,10.23
2023-02-19T10:08:34.414Z,10.19
2023-02-19T10:11:02.740Z,10.22
2023-02-19T10:13:40.120Z,10.40
2023-02-19T10:16:11.663Z,10.40
2023-02-19T10:18:41.436Z,10.30
2023-02-19T10:21:12.793Z,10.13
2023-02-19T10:23:41.332Z,10.01
2023-02-19T10:26:07.888Z,9.88
2023-02-19T10:28:36.152Z,9.84
2023-02-19T10:31:13.411Z,9.78
2023-02-19T10:34:01.207Z,9.84
2023-02-19T10:36:30.541Z,9.98
2023-02-19T10:38:58.800Z,10.21
2023-02-19T10:41:26.871Z,10.21
2023-02-19T10:44:06.630Z,10.30
2023-02-19T10:46:37.454Z,10.28
2023-02-19T10:49:18.014Z,10.26
2023-02-19T10:51:44.641Z,10.32
2023-02-19T10:54:26.777Z,10.32
2023-02-19T10:56:54.186Z,10.03
2023-02-19T10:59:24.081Z,9.97
2023-02-19T11:01:59.136Z,9.97
2023-02-19T11:04:27.858Z,10.06
2023-02-19T11:06:55.063Z,10.13
2023-02-19T11:09:31.000Z,10.34
2023-02-19T11:12:02.940Z,10.48
2023-02-19T11:14:32.086Z,10.57
2023-02-19T11:17:05.093Z,10.63
2023-02-19T11:19:44.981Z,10.77
2023-02-19T11:22:35.687Z,10.88
2023-02-19T11:25:06.821Z,11.11
2023-02-19T11:27:33.737Z,11.08
2023-02-19T11:30:35.584Z,11.00
2023-02-19T11:33:21.966Z,11.12
2023-02-19T11:36:00.706Z,11.01
2023-02-19T11:38:27.634Z,11.04
2023-02-19T11:41:15.417Z,11.14
2023-02-19T11:44:14.540Z,11.25
2023-02-19T11:46:48.922Z,11.31
2023-02-19T11:49:34.090Z,11.38
2023-02-19T11:52:26.940Z,11.25
2023-02-19T11:55:08.388Z,11.14
2023-02-19T11:57:38.516Z,10.97
2023-02-19T12:00:55.819Z,10.97
2023-02-19T12:03:51.968Z,11.10
2023-02-19T12:06:38.236Z,11.52
2023-02-19T12:09:19.736Z,11.83
2023-02-19T12:11:46.302Z,12.29
2023-02-19T12:14:38.045Z,12.29
2023-02-19T12:17:48.692Z,11.78
2023-02-19T12:20:42.726Z,11.90
2023-02-19T12:23:14.939Z,11.76
2023-02-19T12:25:53.328Z,11.65
2023-02-19T12:28:36.725Z,11.63
2023-02-19T12:31:39.685Z,11.55
2023-02-19T12:34:12.240Z,11.62
2023-02-19T12:36:57.121Z,11.48
2023-02-19T12:39:54.809Z,11.35
2023-02-19T12:42:52.383Z,11.41
2023-02-19T12:45:33.362Z,11.35
2023-02-19T12:48:07.307Z,11.27
2023-02-19T12:50:35.832Z,11.22
2023-02-19T12:53:24.357Z,11.24
2023-02-19T12:55:52.513Z,11.32
2023-02-19T12:58:28.237Z,11.31
2023-02-19T13:00:59.094Z,11.35
2023-02-19T13:03:33.756Z,11.31
2023-02-19T13:06:15.581Z,11.28
2023-02-19T13:09:05.307Z,11.29
2023-02-19T13:11:41.830Z,11.25
2023-02-19T13:14:37.540Z,11.22
2023-02-19T13:17:24.078Z,11.19
2023-02-19T13:19:56.463Z,11.17
2023-02-19T13:23:00.965Z,11.18
2023-02-19T13:25:45.269Z,11.28
2023-02-19T13:28:33.913Z,11.38
2023-02-19T13:31:13.619Z,11.42
2023-02-19T13:34:05.708Z,11.45
2023-02-19T13:36:35.621Z,11.70
2023-02-19T13:39:05.587Z,11.65
2023-02-19T13:41:39.346Z,11.63
2023-02-19T13:44:08.518Z,11.62
2023-02-19T13:46:44.038Z,11.53
2023-02-19T13:49:22.877Z,11.46
2023-02-19T13:51:53.245Z,11.55
2023-02-19T13:54:29.225Z,11.35
2023-02-19T13:57:20.813Z,11.15
2023-02-19T13:59:48.347Z,11.14
2023-02-19T14:02:20.814Z,11.01
2023-02-19T14:05:06.868Z,11.07
2023-02-19T14:07:47.908Z,10.94
2023-02-19T14:10:51.391Z,10.95
2023-02-19T14:13:58.058Z,11.02
2023-02-19T14:16:32.325Z,10.87
2023-02-19T14:18:59.052Z,10.76
2023-02-19T14:21:35.694Z,10.71
2023-02-19T14:24:03.812Z,10.66
2023-02-19T14:26:33.002Z,10.55
2023-02-19T14:29:01.089Z,10.56
2023-02-19T14:31:32.016Z,10.57
2023-02-19T14:34:13.701Z,10.48
2023-02-19T14:36:48.854Z,10.45
2023-02-19T14:39:23.359Z,10.48
2023-02-19T14:41:53.271Z,10.39
2023-02-19T14:44:26.986Z,10.42
2023-02-19T14:47:05.900Z,10.23
2023-02-19T14:49:46.878Z,10.13
2023-02-19T14:52:36.775Z,10.09
2023-02-19T14:55:14.555Z,10.05
2023-02-19T14:57:43.122Z,9.95
2023-02-19T15:00:22.086Z,9.88
2023-02-19T15:02:51.250Z,9.91
2023-02-19T15:05:31.739Z,10.01
2023-02-19T15:08:00.849Z,10.01
2023-02-19T15:10:29.354Z,10.09
2023-02-19T15:12:57.681Z,10.11
2023-02-19T15:15:29.787Z,10.16
2023-02-19T15:17:57.816Z,10.21
2023-02-19T15:20:27.531Z,10.13
2023-02-19T15:22:55.949Z,10.19
2023-02-19T15:25:24.703Z,10.19
2023-02-19T15:27:51.188Z,10.25
2023-02-19T15:30:27.534Z,10.29
2023-02-19T15:32:57.119Z,10.21
2023-02-19T15:35:25.327Z,10.22
2023-02-19T15:37:53.549Z,10.26
2023-02-19T15:40:20.676Z,10.23
2023-02-19T15:42:47.840Z,10.23
2023-02-19T15:45:29.411Z,10.21
2023-02-19T15:48:02.316Z,10.08
2023-02-19T15:50:31.767Z,10.08
2023-02-19T15:53:07.088Z,10.05
2023-02-19T15:55:45.547Z,10.06
2023-02-19T15:58:18.210Z,9.99
2023-02-19T16:00:55.932Z,9.97
2023-02-19T16:03:23.336Z,10.06
2023-02-19T16:06:05.199Z,9.98
2023-02-19T16:08:39.715Z,10.03
2023-02-19T16:11:34.055Z,9.97
2023-02-19T16:14:19.306Z,9.97
2023-02-19T16:16:48.638Z,10.09
2023-02-19T16:19:30.827Z,10.06
2023-02-19T16:21:58.577Z,10.03
2023-02-19T16:24:30.199Z,10.12
2023-02-19T16:26:57.547Z,10.08
2023-02-19T16:29:30.126Z,10.11
2023-02-19T16:31:59.726Z,10.11
2023-02-19T16:34:34.454Z,10.08
2023-02-19T16:37:02.654Z,10.12
2023-02-19T16:39:29.945Z,10.13
2023-02-19T16:42:12.477Z,10.23
2023-02-19T16:44:39.005Z,10.16
2023-02-19T16:47:12.642Z,10.08
2023-02-19T16:49:40.298Z,10.13
2023-02-19T16:52:06.871Z,10.09
2023-02-19T16:54:33.421Z,10.11
2023-02-19T16:56:59.944Z,10.03
2023-02-19T16:59:26.434Z,10.03
2023-02-19T17:01:52.907Z,9.97
2023-02-19T17:04:19.527Z,9.91
2023-02-19T17:06:47.204Z,9.94
2023-02-19T17:09:13.757Z,9.88
2023-02-19T17:11:40.311Z,9.82
2023-02-19T17:14:07.050Z,9.80
2023-02-19T17:16:40.751Z,9.78
2023-02-19T17:19:18.349Z,9.77
2023-02-19T17:21:46.721Z,9.74
2023-02-19T17:24:13.705Z,9.74
2023-02-19T17:26:40.242Z,9.75
2023-02-19T17:29:08.825Z,9.73
2023-02-19T17:31:35.416Z,9.73
2023-02-19T17:34:01.939Z,9.73
2023-02-19T17:36:30.852Z,9.71
2023-02-19T17:38:58.900Z,9.67
2023-02-19T17:41:25.654Z,9.70
2023-02-19T17:43:52.606Z,9.73
2023-02-19T17:46:23.445Z,9.61
2023-02-19T17:48:50.579Z,9.71
2023-02-19T17:51:17.271Z,9.71
2023-02-19T17:53:44.000Z,9.60
2023-02-19T17:56:16.450Z,9.53
2023-02-19T17:58:42.941Z,9.57
2023-02-19T18:01:09.613Z,9.50
2023-02-19T18:03:37.582Z,9.55
2023-02-19T18:06:05.077Z,9.57
2023-02-19T18:08:31.585Z,9.46
2023-02-19T18:10:58.026Z,9.43
2023-02-19T18:13:24.613Z,9.39
2023-02-19T18:15:51.235Z,9.36
2023-02-19T18:18:17.809Z,9.34
2023-02-19T18:20:56.164Z,9.32
2023-02-19T18:23:22.678Z,9.32
2023-02-19T18:25:49.199Z,9.33
2023-02-19T18:28:16.143Z,9.32
2023-02-19T18:30:42.820Z,9.30
2023-02-19T18:33:11.008Z,9.30
2023-02-19T18:35:38.100Z,9.20
2023-02-19T18:38:04.657Z,9.18
2023-02-19T18:40:31.128Z,9.16
2023-02-19T18:42:58.675Z,9.13
2023-02-19T18:45:25.422Z,9.11
2023-02-19T18:47:52.050Z,9.06
2023-02-19T18:50:19.629Z,9.05
2023-02-19T18:52:46.447Z,9.03
2023-02-19T18:58:40.396Z,8.96
2023-02-19T19:01:06.939Z,8.95
2023-02-19T19:03:34.517Z,8.98
2023-02-19T19:06:01.423Z,8.96
2023-02-19T19:08:30.395Z,8.96
2023-02-19T19:10:57.183Z,8.91
2023-02-19T19:13:24.019Z,8.89
2023-02-19T19:15:51.243Z,8.85
2023-02-19T19:18:18.463Z,8.88
2023-02-19T19:20:45.079Z,8.83
2023-02-19T19:23:11.817Z,8.82
2023-02-19T19:25:38.262Z,8.81
2023-02-19T19:28:05.016Z,8.81
2023-02-19T19:30:31.616Z,8.82
2023-02-19T19:32:58.225Z,8.79
2023-02-19T19:35:24.874Z,8.74
2023-02-19T19:37:51.524Z,8.68
2023-02-19T19:40:18.851Z,8.68
2023-02-19T19:42:46.093Z,8.72
2023-02-19T19:45:13.861Z,8.78
2023-02-19T19:47:40.341Z,8.71
2023-02-19T19:50:06.956Z,8.65
2023-02-19T19:52:33.442Z,8.68
2023-02-19T19:54:59.985Z,8.61
2023-02-19T19:57:26.466Z,8.62
2023-02-19T19:59:52.994Z,8.61
2023-02-19T20:02:19.595Z,8.58
2023-02-19T20:04:46.125Z,8.55
2023-02-19T20:07:12.608Z,8.55
2023-02-19T20:09:39.076Z,8.61
2023-02-19T20:12:06.552Z,8.54
2023-02-19T20:14:33.829Z,8.55
2023-02-19T20:17:00.399Z,8.45
2023-02-19T20:19:26.895Z,8.47
2023-02-19T20:21:54.148Z,8.38
2023-02-19T20:24:26.439Z,8.36
2023-02-19T20:26:58.691Z,8.30
2023-02-19T20:29:29.847Z,8.22
2023-02-19T20:31:59.913Z,8.10
2023-02-19T20:34:27.033Z,8.07
2023-02-19T20:36:53.870Z,8.06
2023-02-19T20:39:23.625Z,7.99
2023-02-19T20:41:53.027Z,8.00
2023-02-19T20:44:20.095Z,7.92
2023-02-19T20:46:48.970Z,7.97
2023-02-19T20:49:17.378Z,7.92
2023-02-19T20:51:44.265Z,7.83
2023-02-19T20:54:10.861Z,7.83
2023-02-19T20:56:37.376Z,7.78
2023-02-19T20:59:03.877Z,7.78
2023-02-19T21:01:30.523Z,7.75
2023-02-19T21:03:57.220Z,7.72
2023-02-19T21:06:24.864Z,7.71
2023-02-19T21:08:51.355Z,7.64
2023-02-19T21:11:17.941Z,7.59
2023-02-19T21:13:44.560Z,7.61
2023-02-19T21:16:11.498Z,7.55
2023-02-19T21:18:38.209Z,7.51
2023-02-19T21:21:04.900Z,7.50
2023-02-19T21:23:31.445Z,7.52
2023-02-19T21:25:57.965Z,7.41
2023-02-19T21:28:24.712Z,7.40
2023-02-19T21:30:51.333Z,7.38
2023-02-19T21:33:17.808Z,7.27
2023-02-19T21:35:45.151Z,7.25
2023-02-19T21:38:11.629Z,7.30
2023-02-19T21:40:39.362Z,7.30
2023-02-19T21:43:05.822Z,7.21
2023-02-19T21:45:33.532Z,7.24
2023-02-19T21:48:00.021Z,7.08
2023-02-19T21:50:26.523Z,7.13
2023-02-19T21:52:53.601Z,7.11
2023-02-19T21:55:20.154Z,7.03
2023-02-19T21:57:46.633Z,7.08
2023-02-19T22:00:13.739Z,7.01
2023-02-19T22:02:42.103Z,6.94
2023-02-19T22:05:08.891Z,6.96
2023-02-19T22:07:35.457Z,7.05
2023-02-19T22:10:02.073Z,6.90
2023-02-19T22:12:28.714Z,6.84
2023-02-19T22:14:55.241Z,6.76
2023-02-19T22:17:22.309Z,6.77
2023-02-19T22:19:48.811Z,6.76
2023-02-19T22:22:15.316Z,6.69
2023-02-19T22:24:41.922Z,6.72
2023-02-19T22:27:08.558Z,6.69
2023-02-19T22:29:35.120Z,6.83
2023-02-19T22:32:01.783Z,6.75
2023-02-19T22:34:28.373Z,6.69
2023-02-19T22:36:54.969Z,6.68
2023-02-19T22:39:24.825Z,6.66
2023-02-19T22:41:51.514Z,6.65
2023-02-19T22:44:18.310Z,6.56
2023-02-19T22:46:53.049Z,6.69
2023-02-19T22:49:20.813Z,6.69
2023-02-19T22:51:54.800Z,6.68
2023-02-19T22:54:27.061Z,6.73
2023-02-19T22:56:54.489Z,6.79
2023-02-19T22:59:21.518Z,6.79
2023-02-19T23:01:49.014Z,6.89
2023-02-19T23:04:16.028Z,6.93
2023-02-19T23:06:47.142Z,6.84
2023-02-19T23:09:23.660Z,6.94
2023-02-19T23:11:50.595Z,7.01
2023-02-19T23:14:19.455Z,6.97
2023-02-19T23:16:45.915Z,7.05
2023-02-19T23:19:14.648Z,7.07
2023-02-19T23:21:43.087Z,7.03
2023-02-19T23:24:09.728Z,7.05
2023-02-19T23:26:36.438Z,6.87
2023-02-19T23:29:03.354Z,6.83
2023-02-19T23:31:29.871Z,6.75
2023-02-19T23:33:56.397Z,6.56
2023-02-19T23:36:23.872Z,6.46
2023-02-19T23:38:50.708Z,6.46
2023-02-19T23:41:17.535Z,6.29
2023-02-19T23:43:44.784Z,6.18
2023-02-19T23:46:17.728Z,6.13
2023-02-19T23:48:45.959Z,6.05
2023-02-19T23:51:12.604Z,5.98
2023-02-19T23:53:39.091Z,6.00
2023-02-19T23:56:06.257Z,5.97
2023-02-19T23:58:32.861Z,5.90
